sensor_id;sensor_type;location;lat;lon;timestamp;pressure;altitude;pressure_sealevel;temperature
49154;BMP280;49455;52.252;9.124;2023-04-07T00:02:32;99510.47;;;7.67
49154;BMP280;49455;52.252;9.124;2023-04-07T00:07:32;99505.38;;;7.68
49154;BMP280;49455;52.252;9.124;2023-04-07T00:12:33;99500.94;;;7.64
49154;BMP280;49455;52.252;9.124;2023-04-07T00:17:33;99507.81;;;7.64
49154;BMP280;49455;52.252;9.124;2023-04-07T00:22:34;99497.25;;;7.56
49154;BMP280;49455;52.252;9.124;2023-04-07T00:27:34;99489.25;;;7.49
49154;BMP280;49455;52.252;9.124;2023-04-07T00:32:35;99494.25;;;7.45
49154;BMP280;49455;52.252;9.124;2023-04-07T00:37:35;99494.16;;;7.43
49154;BMP280;49455;52.252;9.124;2023-04-07T00:42:36;99490.72;;;7.43
49154;BMP280;49455;52.252;9.124;2023-04-07T00:47:36;99488.28;;;7.46
49154;BMP280;49455;52.252;9.124;2023-04-07T00:52:36;99484.88;;;7.47
49154;BMP280;49455;52.252;9.124;2023-04-07T00:57:37;99485.06;;;7.53
49154;BMP280;49455;52.252;9.124;2023-04-07T01:02:43;99476.34;;;7.48
49154;BMP280;49455;52.252;9.124;2023-04-07T01:08:05;99485.06;;;7.53
49154;BMP280;49455;52.252;9.124;2023-04-07T01:18:26;99479.94;;;7.53
49154;BMP280;49455;52.252;9.124;2023-04-07T01:29:02;99471.13;;;7.45
49154;BMP280;49455;52.252;9.124;2023-04-07T01:34:05;99474.38;;;7.41
49154;BMP280;49455;52.252;9.124;2023-04-07T01:39:10;99474.28;;;7.38
49154;BMP280;49455;52.252;9.124;2023-04-07T01:44:11;99472.28;;;7.31
49154;BMP280;49455;52.252;9.124;2023-04-07T01:49:12;99476.22;;;7.22
49154;BMP280;49455;52.252;9.124;2023-04-07T01:54:13;99475.84;;;7.11
49154;BMP280;49455;52.252;9.124;2023-04-07T01:59:14;99477.09;;;6.99
49154;BMP280;49455;52.252;9.124;2023-04-07T02:04:24;99475.19;;;6.93
49154;BMP280;49455;52.252;9.124;2023-04-07T02:09:30;99478.31;;;6.87
49154;BMP280;49455;52.252;9.124;2023-04-07T02:14:31;99475.81;;;6.66
49154;BMP280;49455;52.252;9.124;2023-04-07T02:19:43;99466.13;;;6.60
49154;BMP280;49455;52.252;9.124;2023-04-07T02:24:44;99473.00;;;6.61
49154;BMP280;49455;52.252;9.124;2023-04-07T02:29:44;99467.09;;;6.63
49154;BMP280;49455;52.252;9.124;2023-04-07T02:34:45;99474.69;;;6.60
49154;BMP280;49455;52.252;9.124;2023-04-07T02:39:45;99470.59;;;6.43
49154;BMP280;49455;52.252;9.124;2023-04-07T02:44:46;99480.28;;;6.29
49154;BMP280;49455;52.252;9.124;2023-04-07T02:49:46;99477.31;;;6.20
49154;BMP280;49455;52.252;9.124;2023-04-07T02:54:47;99471.91;;;6.12
49154;BMP280;49455;52.252;9.124;2023-04-07T02:59:48;99472.91;;;6.16
49154;BMP280;49455;52.252;9.124;2023-04-07T03:04:52;99485.63;;;6.14
49154;BMP280;49455;52.252;9.124;2023-04-07T03:09:54;99476.63;;;6.03
49154;BMP280;49455;52.252;9.124;2023-04-07T03:14:55;99475.88;;;6.06
49154;BMP280;49455;52.252;9.124;2023-04-07T03:19:57;99480.22;;;6.07
49154;BMP280;49455;52.252;9.124;2023-04-07T03:25:00;99475.22;;;6.10
49154;BMP280;49455;52.252;9.124;2023-04-07T03:30:01;99475.69;;;6.22
49154;BMP280;49455;52.252;9.124;2023-04-07T03:35:03;99476.75;;;6.27
49154;BMP280;49455;52.252;9.124;2023-04-07T03:40:04;99465.75;;;6.29
49154;BMP280;49455;52.252;9.124;2023-04-07T03:45:09;99474.19;;;6.27
49154;BMP280;49455;52.252;9.124;2023-04-07T03:50:15;99467.88;;;6.19
49154;BMP280;49455;52.252;9.124;2023-04-07T03:55:36;99478.34;;;6.23
49154;BMP280;49455;52.252;9.124;2023-04-07T04:00:44;99479.66;;;6.14
49154;BMP280;49455;52.252;9.124;2023-04-07T04:05:46;99485.41;;;6.08
49154;BMP280;49455;52.252;9.124;2023-04-07T04:10:51;99485.28;;;6.05
49154;BMP280;49455;52.252;9.124;2023-04-07T04:15:52;99490.38;;;6.04
49154;BMP280;49455;52.252;9.124;2023-04-07T04:20:53;99487.97;;;6.08
49154;BMP280;49455;52.252;9.124;2023-04-07T04:25:54;99486.91;;;6.03
49154;BMP280;49455;52.252;9.124;2023-04-07T04:30:55;99488.25;;;5.96
49154;BMP280;49455;52.252;9.124;2023-04-07T04:35:55;99494.28;;;5.96
49154;BMP280;49455;52.252;9.124;2023-04-07T04:40:57;99504.28;;;5.90
49154;BMP280;49455;52.252;9.124;2023-04-07T04:46:02;99509.41;;;5.90
49154;BMP280;49455;52.252;9.124;2023-04-07T04:51:08;99511.66;;;5.83
49154;BMP280;49455;52.252;9.124;2023-04-07T04:56:10;99515.72;;;5.78
49154;BMP280;49455;52.252;9.124;2023-04-07T05:01:17;99513.06;;;5.76
49154;BMP280;49455;52.252;9.124;2023-04-07T05:06:26;99514.78;;;5.76
49154;BMP280;49455;52.252;9.124;2023-04-07T05:11:29;99513.81;;;5.74
49154;BMP280;49455;52.252;9.124;2023-04-07T05:16:30;99522.16;;;5.70
49154;BMP280;49455;52.252;9.124;2023-04-07T05:21:31;99522.88;;;5.66
49154;BMP280;49455;52.252;9.124;2023-04-07T05:26:35;99521.97;;;5.66
49154;BMP280;49455;52.252;9.124;2023-04-07T05:31:38;99531.16;;;5.61
49154;BMP280;49455;52.252;9.124;2023-04-07T05:36:43;99532.09;;;5.63
49154;BMP280;49455;52.252;9.124;2023-04-07T05:41:44;99540.09;;;5.70
49154;BMP280;49455;52.252;9.124;2023-04-07T05:46:46;99536.03;;;5.73
49154;BMP280;49455;52.252;9.124;2023-04-07T05:51:48;99541.41;;;5.79
49154;BMP280;49455;52.252;9.124;2023-04-07T05:56:49;99538.84;;;5.79
49154;BMP280;49455;52.252;9.124;2023-04-07T06:01:50;99543.56;;;5.89
49154;BMP280;49455;52.252;9.124;2023-04-07T06:06:50;99547.19;;;5.94
49154;BMP280;49455;52.252;9.124;2023-04-07T06:11:52;99558.66;;;6.02
49154;BMP280;49455;52.252;9.124;2023-04-07T06:16:54;99559.16;;;6.14
49154;BMP280;49455;52.252;9.124;2023-04-07T06:21:54;99557.13;;;6.26
49154;BMP280;49455;52.252;9.124;2023-04-07T06:26:55;99570.25;;;6.33
49154;BMP280;49455;52.252;9.124;2023-04-07T06:31:55;99568.34;;;6.49
49154;BMP280;49455;52.252;9.124;2023-04-07T06:36:56;99570.72;;;6.65
49154;BMP280;49455;52.252;9.124;2023-04-07T06:41:56;99564.94;;;6.91
49154;BMP280;49455;52.252;9.124;2023-04-07T06:46:57;99563.41;;;6.95
49154;BMP280;49455;52.252;9.124;2023-04-07T06:51:57;99580.59;;;6.96
49154;BMP280;49455;52.252;9.124;2023-04-07T06:56:57;99583.44;;;7.04
49154;BMP280;49455;52.252;9.124;2023-04-07T07:02:00;99584.78;;;7.16
49154;BMP280;49455;52.252;9.124;2023-04-07T07:07:01;99592.50;;;7.38
49154;BMP280;49455;52.252;9.124;2023-04-07T07:12:01;99590.06;;;7.64
49154;BMP280;49455;52.252;9.124;2023-04-07T07:17:02;99586.63;;;7.86
49154;BMP280;49455;52.252;9.124;2023-04-07T07:22:02;99591.53;;;8.04
49154;BMP280;49455;52.252;9.124;2023-04-07T07:27:03;99608.31;;;8.16
49154;BMP280;49455;52.252;9.124;2023-04-07T07:32:03;99604.03;;;8.16
49154;BMP280;49455;52.252;9.124;2023-04-07T07:37:03;99617.41;;;8.07
49154;BMP280;49455;52.252;9.124;2023-04-07T07:42:04;99609.69;;;8.07
49154;BMP280;49455;52.252;9.124;2023-04-07T07:47:04;99625.38;;;8.13
49154;BMP280;49455;52.252;9.124;2023-04-07T07:52:05;99629.50;;;8.32
49154;BMP280;49455;52.252;9.124;2023-04-07T07:57:05;99631.25;;;8.58
49154;BMP280;49455;52.252;9.124;2023-04-07T08:02:06;99630.25;;;8.79
49154;BMP280;49455;52.252;9.124;2023-04-07T08:07:07;99633.81;;;9.08
49154;BMP280;49455;52.252;9.124;2023-04-07T08:12:07;99636.16;;;9.29
49154;BMP280;49455;52.252;9.124;2023-04-07T08:17:08;99646.47;;;9.29
49154;BMP280;49455;52.252;9.124;2023-04-07T08:22:08;99639.59;;;9.28
49154;BMP280;49455;52.252;9.124;2023-04-07T08:27:09;99651.47;;;9.50
49154;BMP280;49455;52.252;9.124;2023-04-07T08:32:12;99655.41;;;9.65
49154;BMP280;49455;52.252;9.124;2023-04-07T08:37:12;99647.22;;;9.80
49154;BMP280;49455;52.252;9.124;2023-04-07T08:42:13;99652.22;;;9.46
49154;BMP280;49455;52.252;9.124;2023-04-07T08:47:16;99653.59;;;9.63
49154;BMP280;49455;52.252;9.124;2023-04-07T08:52:17;99656.31;;;9.67
49154;BMP280;49455;52.252;9.124;2023-04-07T08:57:21;99652.91;;;9.96
49154;BMP280;49455;52.252;9.124;2023-04-07T09:02:22;99654.09;;;10.07
49154;BMP280;49455;52.252;9.124;2023-04-07T09:07:23;99658.00;;;10.24
49154;BMP280;49455;52.252;9.124;2023-04-07T09:12:27;99661.22;;;10.15
49154;BMP280;49455;52.252;9.124;2023-04-07T09:17:28;99663.63;;;10.40
49154;BMP280;49455;52.252;9.124;2023-04-07T09:22:39;99665.59;;;10.80
49154;BMP280;49455;52.252;9.124;2023-04-07T09:27:53;99664.22;;;10.94
49154;BMP280;49455;52.252;9.124;2023-04-07T09:32:54;99661.19;;;11.43
49154;BMP280;49455;52.252;9.124;2023-04-07T09:38:08;99654.81;;;11.66
49154;BMP280;49455;52.252;9.124;2023-04-07T09:43:15;99650.50;;;11.65
49154;BMP280;49455;52.252;9.124;2023-04-07T09:48:21;99652.78;;;11.53
49154;BMP280;49455;52.252;9.124;2023-04-07T09:53:49;99649.72;;;12.09
49154;BMP280;49455;52.252;9.124;2023-04-07T09:58:56;99653.63;;;12.31
49154;BMP280;49455;52.252;9.124;2023-04-07T10:04:02;99646.56;;;12.68
49154;BMP280;49455;52.252;9.124;2023-04-07T10:09:10;99654.84;;;12.49
49154;BMP280;49455;52.252;9.124;2023-04-07T10:14:11;99650.38;;;12.42
49154;BMP280;49455;52.252;9.124;2023-04-07T10:19:12;99651.44;;;12.51
49154;BMP280;49455;52.252;9.124;2023-04-07T10:24:35;99655.63;;;12.89
49154;BMP280;49455;52.252;9.124;2023-04-07T10:29:41;99667.88;;;12.53
49154;BMP280;49455;52.252;9.124;2023-04-07T10:34:55;99663.97;;;12.74
49154;BMP280;49455;52.252;9.124;2023-04-07T11:01:17;99673.91;;;12.96
49154;BMP280;49455;52.252;9.124;2023-04-07T11:06:17;99669.97;;;13.19
49154;BMP280;49455;52.252;9.124;2023-04-07T11:11:33;99671.41;;;13.02
49154;BMP280;49455;52.252;9.124;2023-04-07T11:16:37;99672.41;;;13.10
49154;BMP280;49455;52.252;9.124;2023-04-07T11:21:37;99678.22;;;13.47
49154;BMP280;49455;52.252;9.124;2023-04-07T11:26:39;99681.47;;;13.34
49154;BMP280;49455;52.252;9.124;2023-04-07T11:31:46;99675.50;;;13.39
49154;BMP280;49455;52.252;9.124;2023-04-07T11:36:46;99666.69;;;13.84
49154;BMP280;49455;52.252;9.124;2023-04-07T11:41:48;99675.38;;;13.89
49154;BMP280;49455;52.252;9.124;2023-04-07T11:46:56;99673.00;;;14.01
49154;BMP280;49455;52.252;9.124;2023-04-07T11:52:01;99663.03;;;14.33
49154;BMP280;49455;52.252;9.124;2023-04-07T11:57:02;99667.53;;;14.46
49154;BMP280;49455;52.252;9.124;2023-04-07T12:02:03;99659.63;;;15.21
49154;BMP280;49455;52.252;9.124;2023-04-07T12:07:10;99680.56;;;14.51
49154;BMP280;49455;52.252;9.124;2023-04-07T12:12:11;99682.56;;;14.03
49154;BMP280;49455;52.252;9.124;2023-04-07T12:17:25;99686.44;;;14.33
49154;BMP280;49455;52.252;9.124;2023-04-07T12:22:26;99690.03;;;14.44
49154;BMP280;49455;52.252;9.124;2023-04-07T12:27:26;99686.47;;;14.36
49154;BMP280;49455;52.252;9.124;2023-04-07T12:32:27;99680.50;;;14.45
49154;BMP280;49455;52.252;9.124;2023-04-07T12:37:27;99675.44;;;15.43
49154;BMP280;49455;52.252;9.124;2023-04-07T12:42:28;99684.09;;;15.39
49154;BMP280;49455;52.252;9.124;2023-04-07T12:47:28;99686.59;;;15.29
49154;BMP280;49455;52.252;9.124;2023-04-07T12:52:28;99685.97;;;15.59
49154;BMP280;49455;52.252;9.124;2023-04-07T12:57:29;99690.16;;;15.40
49154;BMP280;49455;52.252;9.124;2023-04-07T13:02:29;99688.53;;;15.52
49154;BMP280;49455;52.252;9.124;2023-04-07T13:07:30;99698.19;;;15.68
49154;BMP280;49455;52.252;9.124;2023-04-07T13:12:30;99679.25;;;15.88
49154;BMP280;49455;52.252;9.124;2023-04-07T13:17:31;99681.81;;;15.83
49154;BMP280;49455;52.252;9.124;2023-04-07T13:22:31;99681.69;;;15.63
49154;BMP280;49455;52.252;9.124;2023-04-07T13:27:32;99685.13;;;15.65
49154;BMP280;49455;52.252;9.124;2023-04-07T13:32:32;99677.78;;;16.40
49154;BMP280;49455;52.252;9.124;2023-04-07T13:37:32;99683.19;;;15.37
49154;BMP280;49455;52.252;9.124;2023-04-07T13:42:33;99683.69;;;16.08
49154;BMP280;49455;52.252;9.124;2023-04-07T13:47:33;99689.88;;;16.20
49154;BMP280;49455;52.252;9.124;2023-04-07T13:52:34;99692.34;;;16.05
49154;BMP280;49455;52.252;9.124;2023-04-07T13:57:34;99697.78;;;16.39
49154;BMP280;49455;52.252;9.124;2023-04-07T14:02:35;99702.06;;;16.23
49154;BMP280;49455;52.252;9.124;2023-04-07T14:07:35;99686.34;;;16.12
49154;BMP280;49455;52.252;9.124;2023-04-07T14:12:35;99692.44;;;16.13
49154;BMP280;49455;52.252;9.124;2023-04-07T14:17:36;99688.13;;;16.21
49154;BMP280;49455;52.252;9.124;2023-04-07T14:22:36;99688.31;;;16.58
49154;BMP280;49455;52.252;9.124;2023-04-07T14:27:39;99688.53;;;15.53
49154;BMP280;49455;52.252;9.124;2023-04-07T14:32:39;99685.44;;;16.09
49154;BMP280;49455;52.252;9.124;2023-04-07T14:37:40;99697.13;;;15.43
49154;BMP280;49455;52.252;9.124;2023-04-07T14:42:40;99687.25;;;15.07
49154;BMP280;49455;52.252;9.124;2023-04-07T14:47:40;99692.78;;;15.43
49154;BMP280;49455;52.252;9.124;2023-04-07T14:52:41;99695.63;;;14.80
49154;BMP280;49455;52.252;9.124;2023-04-07T14:57:41;99688.69;;;15.71
49154;BMP280;49455;52.252;9.124;2023-04-07T15:02:42;99696.13;;;15.27
49154;BMP280;49455;52.252;9.124;2023-04-07T15:07:42;99698.19;;;15.66
49154;BMP280;49455;52.252;9.124;2023-04-07T15:12:43;99706.75;;;15.53
49154;BMP280;49455;52.252;9.124;2023-04-07T15:17:44;99694.50;;;15.41
49154;BMP280;49455;52.252;9.124;2023-04-07T15:22:44;99700.38;;;15.19
49154;BMP280;49455;52.252;9.124;2023-04-07T15:27:45;99698.72;;;15.25
49154;BMP280;49455;52.252;9.124;2023-04-07T15:32:58;99699.81;;;15.52
49154;BMP280;49455;52.252;9.124;2023-04-07T15:37:59;99705.88;;;14.66
49154;BMP280;49455;52.252;9.124;2023-04-07T15:42:59;99707.66;;;14.69
49154;BMP280;49455;52.252;9.124;2023-04-07T15:48:00;99711.28;;;14.82
49154;BMP280;49455;52.252;9.124;2023-04-07T15:53:01;99719.34;;;15.06
49154;BMP280;49455;52.252;9.124;2023-04-07T15:58:02;99728.88;;;15.07
49154;BMP280;49455;52.252;9.124;2023-04-07T16:03:03;99726.78;;;14.74
49154;BMP280;49455;52.252;9.124;2023-04-07T16:08:04;99724.03;;;14.62
49154;BMP280;49455;52.252;9.124;2023-04-07T16:13:04;99733.22;;;14.33
49154;BMP280;49455;52.252;9.124;2023-04-07T16:18:06;99729.34;;;14.05
49154;BMP280;49455;52.252;9.124;2023-04-07T16:23:10;99729.53;;;14.17
49154;BMP280;49455;52.252;9.124;2023-04-07T16:28:10;99734.78;;;14.20
49154;BMP280;49455;52.252;9.124;2023-04-07T16:33:11;99738.06;;;14.08
49154;BMP280;49455;52.252;9.124;2023-04-07T16:38:11;99739.19;;;13.71
49154;BMP280;49455;52.252;9.124;2023-04-07T16:43:11;99747.94;;;13.76
49154;BMP280;49455;52.252;9.124;2023-04-07T16:48:12;99746.00;;;13.64
49154;BMP280;49455;52.252;9.124;2023-04-07T16:53:12;99757.34;;;13.69
49154;BMP280;49455;52.252;9.124;2023-04-07T16:58:13;99767.25;;;13.41
49154;BMP280;49455;52.252;9.124;2023-04-07T17:03:13;99774.22;;;13.44
49154;BMP280;49455;52.252;9.124;2023-04-07T17:08:13;99781.00;;;13.37
49154;BMP280;49455;52.252;9.124;2023-04-07T17:13:14;99780.34;;;13.02
49154;BMP280;49455;52.252;9.124;2023-04-07T17:18:14;99793.97;;;12.91
49154;BMP280;49455;52.252;9.124;2023-04-07T17:23:15;99800.88;;;12.90
49154;BMP280;49455;52.252;9.124;2023-04-07T17:28:15;99796.19;;;12.73
49154;BMP280;49455;52.252;9.124;2023-04-07T17:33:16;99811.13;;;12.45
49154;BMP280;49455;52.252;9.124;2023-04-07T17:38:16;99815.94;;;12.29
49154;BMP280;49455;52.252;9.124;2023-04-07T17:43:17;99819.63;;;12.02
49154;BMP280;49455;52.252;9.124;2023-04-07T17:48:17;99839.44;;;11.66
49154;BMP280;49455;52.252;9.124;2023-04-07T17:53:18;99835.78;;;11.58
49154;BMP280;49455;52.252;9.124;2023-04-07T17:58:18;99844.81;;;11.40
49154;BMP280;49455;52.252;9.124;2023-04-07T18:03:19;99854.75;;;11.27
49154;BMP280;49455;52.252;9.124;2023-04-07T18:08:19;99854.94;;;11.02
49154;BMP280;49455;52.252;9.124;2023-04-07T18:13:19;99865.69;;;10.88
49154;BMP280;49455;52.252;9.124;2023-04-07T18:18:20;99872.09;;;10.71
49154;BMP280;49455;52.252;9.124;2023-04-07T18:23:20;99874.03;;;10.49
49154;BMP280;49455;52.252;9.124;2023-04-07T18:28:21;99881.84;;;10.25
49154;BMP280;49455;52.252;9.124;2023-04-07T18:33:21;99891.09;;;10.18
49154;BMP280;49455;52.252;9.124;2023-04-07T18:38:21;99892.28;;;10.01
49154;BMP280;49455;52.252;9.124;2023-04-07T18:43:24;99899.34;;;9.82
49154;BMP280;49455;52.252;9.124;2023-04-07T18:48:24;99903.38;;;9.74
49154;BMP280;49455;52.252;9.124;2023-04-07T18:53:25;99903.84;;;9.63
49154;BMP280;49455;52.252;9.124;2023-04-07T18:58:25;99912.78;;;9.48
49154;BMP280;49455;52.252;9.124;2023-04-07T19:03:25;99917.66;;;9.40
49154;BMP280;49455;52.252;9.124;2023-04-07T19:08:26;99933.72;;;9.34
49154;BMP280;49455;52.252;9.124;2023-04-07T19:13:26;99934.34;;;9.27
49154;BMP280;49455;52.252;9.124;2023-04-07T19:18:27;99943.66;;;9.23
49154;BMP280;49455;52.252;9.124;2023-04-07T19:23:28;99938.50;;;9.00
49154;BMP280;49455;52.252;9.124;2023-04-07T19:28:29;99950.88;;;8.87
49154;BMP280;49455;52.252;9.124;2023-04-07T19:33:29;99957.03;;;8.69
49154;BMP280;49455;52.252;9.124;2023-04-07T19:38:30;99959.97;;;8.56
49154;BMP280;49455;52.252;9.124;2023-04-07T19:43:31;99965.34;;;8.40
49154;BMP280;49455;52.252;9.124;2023-04-07T19:48:31;99978.78;;;8.33
49154;BMP280;49455;52.252;9.124;2023-04-07T19:53:32;99980.28;;;8.28
49154;BMP280;49455;52.252;9.124;2023-04-07T19:58:32;99984.88;;;8.15
49154;BMP280;49455;52.252;9.124;2023-04-07T20:03:32;99988.91;;;8.09
49154;BMP280;49455;52.252;9.124;2023-04-07T20:08:33;99992.56;;;7.95
49154;BMP280;49455;52.252;9.124;2023-04-07T20:13:33;100001.84;;;7.91
49154;BMP280;49455;52.252;9.124;2023-04-07T20:18:34;100008.63;;;7.89
49154;BMP280;49455;52.252;9.124;2023-04-07T20:23:34;100009.25;;;7.84
49154;BMP280;49455;52.252;9.124;2023-04-07T20:28:35;100010.88;;;7.63
49154;BMP280;49455;52.252;9.124;2023-04-07T20:33:35;100021.66;;;7.55
49154;BMP280;49455;52.252;9.124;2023-04-07T20:38:36;100024.44;;;7.41
49154;BMP280;49455;52.252;9.124;2023-04-07T20:43:36;100025.78;;;7.33
49154;BMP280;49455;52.252;9.124;2023-04-07T20:48:36;100033.47;;;7.31
49154;BMP280;49455;52.252;9.124;2023-04-07T20:53:37;100036.75;;;7.10
49154;BMP280;49455;52.252;9.124;2023-04-07T20:58:37;100040.28;;;7.12
49154;BMP280;49455;52.252;9.124;2023-04-07T21:03:38;100049.97;;;7.00
49154;BMP280;49455;52.252;9.124;2023-04-07T21:08:38;100053.44;;;6.84
49154;BMP280;49455;52.252;9.124;2023-04-07T21:13:38;100053.09;;;6.59
49154;BMP280;49455;52.252;9.124;2023-04-07T21:18:39;100059.25;;;6.45
49154;BMP280;49455;52.252;9.124;2023-04-07T21:23:39;100057.19;;;6.38
49154;BMP280;49455;52.252;9.124;2023-04-07T21:28:40;100061.81;;;6.28
49154;BMP280;49455;52.252;9.124;2023-04-07T21:33:40;100058.94;;;6.22
49154;BMP280;49455;52.252;9.124;2023-04-07T21:38:40;100067.91;;;6.30
49154;BMP280;49455;52.252;9.124;2023-04-07T21:43:41;100070.03;;;6.21
49154;BMP280;49455;52.252;9.124;2023-04-07T21:48:41;100072.84;;;6.10
49154;BMP280;49455;52.252;9.124;2023-04-07T21:53:42;100084.28;;;5.99
49154;BMP280;49455;52.252;9.124;2023-04-07T21:58:42;100086.13;;;6.02
49154;BMP280;49455;52.252;9.124;2023-04-07T22:03:42;100092.59;;;5.79
49154;BMP280;49455;52.252;9.124;2023-04-07T22:08:43;100088.28;;;5.78
49154;BMP280;49455;52.252;9.124;2023-04-07T22:13:43;100092.38;;;5.91
49154;BMP280;49455;52.252;9.124;2023-04-07T22:18:44;100099.09;;;6.04
49154;BMP280;49455;52.252;9.124;2023-04-07T22:23:44;100105.41;;;6.11
49154;BMP280;49455;52.252;9.124;2023-04-07T22:28:44;100097.78;;;6.12
49154;BMP280;49455;52.252;9.124;2023-04-07T22:33:45;100104.09;;;6.19
49154;BMP280;49455;52.252;9.124;2023-04-07T22:38:45;100100.09;;;6.24
49154;BMP280;49455;52.252;9.124;2023-04-07T22:43:46;100097.97;;;6.32
49154;BMP280;49455;52.252;9.124;2023-04-07T22:48:46;100101.56;;;6.36
49154;BMP280;49455;52.252;9.124;2023-04-07T22:53:46;100101.03;;;6.26
49154;BMP280;49455;52.252;9.124;2023-04-07T22:58:47;100113.22;;;6.30
49154;BMP280;49455;52.252;9.124;2023-04-07T23:03:47;100108.81;;;6.27
49154;BMP280;49455;52.252;9.124;2023-04-07T23:08:48;100109.97;;;6.33
49154;BMP280;49455;52.252;9.124;2023-04-07T23:13:48;100108.53;;;6.38
49154;BMP280;49455;52.252;9.124;2023-04-07T23:18:49;100118.50;;;6.32
49154;BMP280;49455;52.252;9.124;2023-04-07T23:23:49;100117.91;;;6.38
49154;BMP280;49455;52.252;9.124;2023-04-07T23:28:50;100113.94;;;6.44
49154;BMP280;49455;52.252;9.124;2023-04-07T23:33:50;100122.41;;;6.42
49154;BMP280;49455;52.252;9.124;2023-04-07T23:38:50;100122.31;;;6.40
49154;BMP280;49455;52.252;9.124;2023-04-07T23:43:51;100133.56;;;6.42
49154;BMP280;49455;52.252;9.124;2023-04-07T23:48:51;100134.03;;;6.35
49154;BMP280;49455;52.252;9.124;2023-04-07T23:53:52;100128.91;;;6.35
49154;BMP280;49455;52.252;9.124;2023-04-07T23:58:52;100131.00;;;6.42
